createdAt,value
2022-11-08T00:00:36.923Z,1007.09
2022-11-08T00:01:38.748Z,1007.05
2022-11-08T00:02:36.363Z,1007.08
2022-11-08T00:03:36.602Z,1007.10
2022-11-08T00:04:36.883Z,1007.08
2022-11-08T00:05:36.874Z,1007.13
2022-11-08T00:06:36.742Z,1007.05
2022-11-08T00:07:36.864Z,1007.11
2022-11-08T00:08:36.832Z,1007.11
2022-11-08T00:09:36.804Z,1007.12
2022-11-08T00:10:36.815Z,1007.05
2022-11-08T00:11:36.795Z,1007.06
2022-11-08T00:12:36.186Z,1007.07
2022-11-08T00:13:37.557Z,1007.04
2022-11-08T00:14:36.766Z,1007.05
2022-11-08T00:15:36.107Z,1007.01
2022-11-08T00:16:36.116Z,1007.04
2022-11-08T00:17:36.843Z,1007.07
2022-11-08T00:18:36.720Z,1007.05
2022-11-08T00:19:36.026Z,1007.00
2022-11-08T00:20:36.007Z,1007.05
2022-11-08T00:21:36.087Z,1007.03
2022-11-08T00:22:36.032Z,1007.03
2022-11-08T00:23:36.667Z,1007.02
2022-11-08T00:24:36.669Z,1006.96
2022-11-08T00:25:36.651Z,1007.02
2022-11-08T00:26:35.962Z,1006.98
2022-11-08T00:27:35.985Z,1006.98
2022-11-08T00:28:35.979Z,1006.99
2022-11-08T00:29:35.970Z,1007.01
2022-11-08T00:30:36.859Z,1007.02
2022-11-08T00:31:36.579Z,1007.01
2022-11-08T00:32:36.569Z,1007.05
2022-11-08T00:33:36.554Z,1007.09
2022-11-08T00:34:35.872Z,1007.05
2022-11-08T00:35:35.889Z,1007.09
2022-11-08T00:36:36.790Z,1007.06
2022-11-08T00:37:35.874Z,1007.02
2022-11-08T00:38:35.849Z,1007.07
2022-11-08T00:39:35.843Z,1007.13
2022-11-08T00:40:36.513Z,1007.11
2022-11-08T00:41:36.481Z,1007.07
2022-11-08T00:42:35.823Z,1007.10
2022-11-08T00:43:36.740Z,1007.02
2022-11-08T00:44:35.760Z,1007.02
2022-11-08T00:45:37.754Z,1006.98
2022-11-08T00:46:35.801Z,1007.01
2022-11-08T00:47:36.415Z,1007.05
2022-11-08T00:48:36.421Z,1007.06
2022-11-08T00:49:36.396Z,1007.03
2022-11-08T00:50:36.374Z,1007.05
2022-11-08T00:51:35.756Z,1007.06
2022-11-08T00:52:37.707Z,1007.07
2022-11-08T00:53:36.372Z,1007.02
2022-11-08T00:54:35.682Z,1007.04
2022-11-08T00:55:35.665Z,1007.01
2022-11-08T00:56:35.711Z,1007.01
2022-11-08T00:57:57.968Z,1007.05
2022-11-08T00:58:37.311Z,1007.03
2022-11-08T00:59:37.536Z,1007.00
2022-11-08T01:00:35.662Z,1007.02
2022-11-08T01:01:36.352Z,1006.98
2022-11-08T01:02:35.700Z,1007.03
2022-11-08T01:03:36.328Z,1006.98
2022-11-08T01:04:36.588Z,1006.99
2022-11-08T01:05:36.518Z,1006.97
2022-11-08T01:06:37.519Z,1006.97
2022-11-08T01:07:35.560Z,1006.99
2022-11-08T01:08:36.198Z,1007.02
2022-11-08T01:09:36.188Z,1006.98
2022-11-08T01:10:35.509Z,1007.01
2022-11-08T01:11:36.186Z,1006.96
2022-11-08T01:12:35.521Z,1006.94
2022-11-08T01:13:36.131Z,1006.97
2022-11-08T01:14:35.492Z,1006.94
2022-11-08T01:15:36.647Z,1006.92
2022-11-08T01:16:35.432Z,1006.94
2022-11-08T01:17:35.461Z,1006.89
2022-11-08T01:18:35.403Z,1006.92
2022-11-08T01:19:35.412Z,1006.91
2022-11-08T01:20:36.061Z,1006.89
2022-11-08T01:21:35.540Z,1006.91
2022-11-08T01:22:36.042Z,1006.91
2022-11-08T01:23:36.022Z,1006.87
2022-11-08T01:24:35.363Z,1006.90
2022-11-08T01:25:35.348Z,1006.93
2022-11-08T01:26:35.982Z,1006.84
2022-11-08T01:27:36.842Z,1006.93
2022-11-08T01:28:37.227Z,1006.86
2022-11-08T01:29:36.214Z,1006.88
2022-11-08T01:30:35.952Z,1006.89
2022-11-08T01:31:35.950Z,1006.86
2022-11-08T01:32:35.931Z,1006.82
2022-11-08T01:33:35.909Z,1006.82
2022-11-08T01:34:36.688Z,1006.84
2022-11-08T01:35:35.208Z,1006.85
2022-11-08T01:36:35.196Z,1006.79
2022-11-08T01:37:35.187Z,1006.82
2022-11-08T01:38:35.870Z,1006.83
2022-11-08T01:39:35.926Z,1006.79
2022-11-08T01:40:35.826Z,1006.74
2022-11-08T01:41:37.077Z,1006.77
2022-11-08T01:42:35.163Z,1006.78
2022-11-08T01:43:36.077Z,1006.85
2022-11-08T01:44:37.048Z,1006.77
2022-11-08T01:45:36.078Z,1006.78
2022-11-08T01:46:36.049Z,1006.79
2022-11-08T01:47:37.030Z,1006.77
2022-11-08T01:48:37.078Z,1006.77
2022-11-08T01:49:37.079Z,1006.71
2022-11-08T01:50:37.016Z,1006.80
2022-11-08T01:51:36.012Z,1006.75
2022-11-08T01:52:36.519Z,1006.72
2022-11-08T01:53:37.012Z,1006.71
2022-11-08T01:54:36.932Z,1006.70
2022-11-08T01:55:35.963Z,1006.65
2022-11-08T01:56:36.966Z,1006.67
2022-11-08T01:57:36.952Z,1006.70
2022-11-08T01:58:34.970Z,1006.67
2022-11-08T01:59:35.900Z,1006.65
2022-11-08T02:00:34.961Z,1006.63
2022-11-08T02:01:35.937Z,1006.65
2022-11-08T02:02:36.066Z,1006.60
2022-11-08T02:03:35.982Z,1006.62
2022-11-08T02:04:36.823Z,1006.58
2022-11-08T02:05:35.564Z,1006.57
2022-11-08T02:06:36.802Z,1006.54
2022-11-08T02:07:36.797Z,1006.56
2022-11-08T02:08:35.531Z,1006.60
2022-11-08T02:09:35.504Z,1006.58
2022-11-08T02:10:34.836Z,1006.56
2022-11-08T02:11:36.753Z,1006.57
2022-11-08T02:12:35.755Z,1006.60
2022-11-08T02:13:36.763Z,1006.57
2022-11-08T02:14:35.727Z,1006.60
2022-11-08T02:15:35.726Z,1006.57
2022-11-08T02:16:36.754Z,1006.57
2022-11-08T02:17:35.726Z,1006.54
2022-11-08T02:18:36.204Z,1006.52
2022-11-08T02:19:36.688Z,1006.49
2022-11-08T02:20:37.453Z,1006.49
2022-11-08T02:21:36.735Z,1006.50
2022-11-08T02:22:36.687Z,1006.48
2022-11-08T02:23:36.627Z,1006.44
2022-11-08T02:24:36.606Z,1006.48
2022-11-08T02:25:36.136Z,1006.45
2022-11-08T02:26:36.586Z,1006.43
2022-11-08T02:27:35.608Z,1006.41
2022-11-08T02:28:35.567Z,1006.42
2022-11-08T02:29:36.559Z,1006.38
2022-11-08T02:30:36.547Z,1006.37
2022-11-08T02:31:36.549Z,1006.36
2022-11-08T02:32:35.539Z,1006.36
2022-11-08T02:33:35.568Z,1006.36
2022-11-08T02:34:35.529Z,1006.44
2022-11-08T02:35:36.499Z,1006.46
2022-11-08T02:36:35.492Z,1006.42
2022-11-08T02:37:35.311Z,1006.42
2022-11-08T02:38:35.470Z,1006.41
2022-11-08T02:39:35.595Z,1006.38
2022-11-08T02:40:36.440Z,1006.34
2022-11-08T02:41:36.412Z,1006.33
2022-11-08T02:42:36.415Z,1006.40
2022-11-08T02:43:37.200Z,1006.36
2022-11-08T02:44:35.412Z,1006.35
2022-11-08T02:45:35.425Z,1006.28
2022-11-08T02:46:35.462Z,1006.30
2022-11-08T02:47:35.103Z,1006.28
2022-11-08T02:48:36.445Z,1006.26
2022-11-08T02:49:36.351Z,1006.31
2022-11-08T02:50:36.323Z,1006.32
2022-11-08T02:51:35.322Z,1006.27
2022-11-08T02:52:34.375Z,1006.24
2022-11-08T02:53:35.022Z,1006.30
2022-11-08T02:54:36.295Z,1006.30
2022-11-08T02:55:35.313Z,1006.27
2022-11-08T02:56:35.347Z,1006.28
2022-11-08T02:57:36.266Z,1006.25
2022-11-08T02:58:35.725Z,1006.25
2022-11-08T02:59:36.242Z,1006.22
2022-11-08T03:00:35.225Z,1006.22
2022-11-08T03:01:36.311Z,1006.21
2022-11-08T03:02:35.261Z,1006.21
2022-11-08T03:03:35.183Z,1006.21
2022-11-08T03:04:36.195Z,1006.23
2022-11-08T03:05:35.146Z,1006.17
2022-11-08T03:06:36.167Z,1006.19
2022-11-08T03:07:34.877Z,1006.16
2022-11-08T03:08:34.846Z,1006.17
2022-11-08T03:09:34.177Z,1006.14
2022-11-08T03:10:34.168Z,1006.17
2022-11-08T03:11:34.826Z,1006.08
2022-11-08T03:12:34.816Z,1006.11
2022-11-08T03:13:34.809Z,1006.04
2022-11-08T03:14:34.155Z,1006.03
2022-11-08T03:15:34.787Z,1006.02
2022-11-08T03:16:34.770Z,1006.01
2022-11-08T03:17:35.037Z,1006.04
2022-11-08T03:18:34.092Z,1006.02
2022-11-08T03:19:35.810Z,1006.06
2022-11-08T03:20:34.711Z,1006.04
2022-11-08T03:21:34.718Z,1006.05
2022-11-08T03:22:35.050Z,1006.03
2022-11-08T03:23:34.028Z,1006.05
2022-11-08T03:24:34.022Z,1006.00
2022-11-08T03:25:35.934Z,1006.02
2022-11-08T03:26:35.042Z,1006.05
2022-11-08T03:27:35.920Z,1005.99
2022-11-08T03:28:35.917Z,1006.05
2022-11-08T03:29:34.903Z,1005.99
2022-11-08T03:30:34.044Z,1006.00
2022-11-08T03:31:34.870Z,1005.96
2022-11-08T03:32:35.974Z,1005.94
2022-11-08T03:33:33.909Z,1005.96
2022-11-08T03:34:34.844Z,1005.97
2022-11-08T03:35:33.874Z,1005.97
2022-11-08T03:36:34.557Z,1005.97
2022-11-08T03:37:33.873Z,1005.96
2022-11-08T03:38:34.534Z,1005.95
2022-11-08T03:39:33.841Z,1005.95
2022-11-08T03:40:34.763Z,1005.93
2022-11-08T03:41:34.495Z,1005.92
2022-11-08T03:42:34.492Z,1005.90
2022-11-08T03:43:34.481Z,1005.91
2022-11-08T03:44:34.456Z,1005.89
2022-11-08T03:45:34.480Z,1005.89
2022-11-08T03:46:33.783Z,1005.89
2022-11-08T03:47:33.766Z,1005.92
2022-11-08T03:48:35.734Z,1005.88
2022-11-08T03:49:35.718Z,1005.88
2022-11-08T03:50:34.685Z,1005.87
2022-11-08T03:51:34.646Z,1005.84
2022-11-08T03:52:34.385Z,1005.82
2022-11-08T03:53:34.365Z,1005.86
2022-11-08T03:54:33.668Z,1005.85
2022-11-08T03:55:33.664Z,1005.85
2022-11-08T03:56:35.617Z,1005.83
2022-11-08T03:57:34.327Z,1005.82
2022-11-08T03:58:33.649Z,1005.83
2022-11-08T03:59:34.451Z,1005.79
2022-11-08T04:00:34.561Z,1005.79
2022-11-08T04:01:34.582Z,1005.77
2022-11-08T04:02:33.770Z,1005.78
2022-11-08T04:03:34.549Z,1005.80
2022-11-08T04:04:34.251Z,1005.79
2022-11-08T04:05:34.239Z,1005.79
2022-11-08T04:06:34.219Z,1005.79
2022-11-08T04:07:34.215Z,1005.77
2022-11-08T04:08:35.492Z,1005.74
2022-11-08T04:09:34.200Z,1005.74
2022-11-08T04:10:34.455Z,1005.69
2022-11-08T04:11:34.314Z,1005.70
2022-11-08T04:12:34.161Z,1005.73
2022-11-08T04:13:34.335Z,1005.69
2022-11-08T04:14:34.231Z,1005.68
2022-11-08T04:15:34.149Z,1005.65
2022-11-08T04:16:34.475Z,1005.66
2022-11-08T04:17:34.255Z,1005.64
2022-11-08T04:18:35.355Z,1005.64
2022-11-08T04:19:34.235Z,1005.63
2022-11-08T04:20:34.248Z,1005.64
2022-11-08T04:21:34.341Z,1005.63
2022-11-08T04:22:34.054Z,1005.59
2022-11-08T04:23:35.328Z,1005.56
2022-11-08T04:24:34.200Z,1005.56
2022-11-08T04:25:35.527Z,1005.56
2022-11-08T04:26:34.283Z,1005.52
2022-11-08T04:27:34.252Z,1005.56
2022-11-08T04:28:34.732Z,1005.57
2022-11-08T04:29:33.975Z,1005.49
2022-11-08T04:30:33.269Z,1005.52
2022-11-08T04:31:33.971Z,1005.49
2022-11-08T04:32:33.275Z,1005.47
2022-11-08T04:33:35.197Z,1005.49
2022-11-08T04:34:33.249Z,1005.46
2022-11-08T04:35:33.915Z,1005.44
2022-11-08T04:36:34.159Z,1005.50
2022-11-08T04:37:33.896Z,1005.47
2022-11-08T04:38:35.177Z,1005.42
2022-11-08T04:39:33.878Z,1005.48
2022-11-08T04:40:33.857Z,1005.42
2022-11-08T04:41:35.119Z,1005.43
2022-11-08T04:42:33.157Z,1005.45
2022-11-08T04:43:34.635Z,1005.44
2022-11-08T04:44:33.210Z,1005.43
2022-11-08T04:45:33.137Z,1005.44
2022-11-08T04:46:35.060Z,1005.34
2022-11-08T04:47:38.845Z,1005.36
2022-11-08T04:48:34.134Z,1005.33
2022-11-08T04:49:34.060Z,1005.37
2022-11-08T04:50:34.129Z,1005.30
2022-11-08T04:51:33.751Z,1005.37
2022-11-08T04:52:33.070Z,1005.36
2022-11-08T04:53:33.993Z,1005.31
2022-11-08T04:54:33.969Z,1005.33
2022-11-08T04:55:33.021Z,1005.26
2022-11-08T04:56:33.038Z,1005.24
2022-11-08T04:57:33.000Z,1005.18
2022-11-08T04:58:33.662Z,1005.22
2022-11-08T04:59:33.655Z,1005.20
2022-11-08T05:00:33.085Z,1005.15
2022-11-08T05:01:33.073Z,1005.10
2022-11-08T05:02:33.748Z,1005.14
2022-11-08T05:03:33.611Z,1005.06
2022-11-08T05:04:33.843Z,1005.13
2022-11-08T05:05:32.931Z,1005.09
2022-11-08T05:06:33.604Z,1005.13
2022-11-08T05:07:32.890Z,1005.09
2022-11-08T05:08:33.652Z,1005.05
2022-11-08T05:09:33.546Z,1005.06
2022-11-08T05:10:33.534Z,1005.09
2022-11-08T05:11:33.538Z,1005.08
2022-11-08T05:12:32.875Z,1005.07
2022-11-08T05:13:33.507Z,1005.03
2022-11-08T05:14:32.864Z,1005.04
2022-11-08T05:15:33.493Z,1005.02
2022-11-08T05:16:32.785Z,1004.96
2022-11-08T05:17:33.475Z,1004.93
2022-11-08T05:18:32.775Z,1004.93
2022-11-08T05:19:32.787Z,1004.88
2022-11-08T05:20:33.409Z,1004.89
2022-11-08T05:21:32.749Z,1004.86
2022-11-08T05:22:33.406Z,1004.85
2022-11-08T05:23:32.725Z,1004.81
2022-11-08T05:24:32.716Z,1004.79
2022-11-08T05:25:33.381Z,1004.79
2022-11-08T05:26:33.347Z,1004.66
2022-11-08T05:27:32.690Z,1004.70
2022-11-08T05:28:33.348Z,1004.57
2022-11-08T05:29:34.262Z,1004.54
2022-11-08T05:30:33.316Z,1004.55
2022-11-08T05:31:33.317Z,1004.57
2022-11-08T05:32:32.738Z,1004.66
2022-11-08T05:33:33.289Z,1004.65
2022-11-08T05:34:33.549Z,1004.64
2022-11-08T05:35:32.932Z,1004.61
2022-11-08T05:36:33.263Z,1004.61
2022-11-08T05:37:32.610Z,1004.62
2022-11-08T05:38:32.584Z,1004.67
2022-11-08T05:39:33.221Z,1004.60
2022-11-08T05:40:33.584Z,1004.59
2022-11-08T05:41:32.550Z,1004.62
2022-11-08T05:42:33.200Z,1004.56
2022-11-08T05:43:32.503Z,1004.54
2022-11-08T05:44:33.162Z,1004.54
2022-11-08T05:45:33.162Z,1004.50
2022-11-08T05:46:33.175Z,1004.53
2022-11-08T05:47:32.482Z,1004.49
2022-11-08T05:48:33.142Z,1004.50
2022-11-08T05:49:32.473Z,1004.43
2022-11-08T05:50:33.203Z,1004.45
2022-11-08T05:51:32.446Z,1004.36
2022-11-08T05:52:33.368Z,1004.34
2022-11-08T05:53:33.291Z,1004.34
2022-11-08T05:54:32.426Z,1004.29
2022-11-08T05:55:32.374Z,1004.28
2022-11-08T05:56:33.114Z,1004.30
2022-11-08T05:57:33.033Z,1004.29
2022-11-08T05:58:32.374Z,1004.30
2022-11-08T05:59:33.026Z,1004.34
2022-11-08T06:00:32.358Z,1004.39
2022-11-08T06:01:33.913Z,1004.34
2022-11-08T06:02:33.111Z,1004.38
2022-11-08T06:03:32.387Z,1004.37
2022-11-08T06:04:32.308Z,1004.37
2022-11-08T06:05:32.303Z,1004.35
2022-11-08T06:06:32.947Z,1004.32
2022-11-08T06:07:32.271Z,1004.37
2022-11-08T06:08:33.000Z,1004.35
2022-11-08T06:09:32.281Z,1004.39
2022-11-08T06:10:32.218Z,1004.34
2022-11-08T06:11:32.888Z,1004.37
2022-11-08T06:12:32.238Z,1004.39
2022-11-08T06:13:33.413Z,1004.32
2022-11-08T06:14:32.248Z,1004.33
2022-11-08T06:15:33.412Z,1004.37
2022-11-08T06:16:32.837Z,1004.36
2022-11-08T06:17:32.821Z,1004.32
2022-11-08T06:18:32.824Z,1004.25
2022-11-08T06:19:32.811Z,1004.33
2022-11-08T06:20:32.781Z,1004.28
2022-11-08T06:21:32.803Z,1004.32
2022-11-08T06:22:32.779Z,1004.27
2022-11-08T06:23:32.769Z,1004.21
2022-11-08T06:24:32.753Z,1004.17
2022-11-08T06:25:35.803Z,1004.15
2022-11-08T06:26:32.064Z,1004.09
2022-11-08T06:27:32.052Z,1004.03
2022-11-08T06:28:32.031Z,1004.07
2022-11-08T06:29:32.702Z,1004.03
2022-11-08T06:30:32.715Z,1003.95
2022-11-08T06:31:31.996Z,1003.94
2022-11-08T06:32:32.673Z,1003.93
2022-11-08T06:33:32.007Z,1003.86
2022-11-08T06:34:32.642Z,1003.87
2022-11-08T06:35:32.633Z,1003.91
2022-11-08T06:36:32.625Z,1003.92
2022-11-08T06:37:31.949Z,1003.91
2022-11-08T06:38:32.035Z,1003.96
2022-11-08T06:39:32.584Z,1003.97
2022-11-08T06:40:32.574Z,1003.95
2022-11-08T06:41:32.579Z,1004.02
2022-11-08T06:42:31.911Z,1003.92
2022-11-08T06:43:31.868Z,1003.96
2022-11-08T06:44:31.888Z,1003.96
2022-11-08T06:45:32.526Z,1003.92
2022-11-08T06:46:32.506Z,1003.98
2022-11-08T06:47:32.504Z,1003.90
2022-11-08T06:48:35.762Z,1003.90
2022-11-08T06:49:31.796Z,1003.88
2022-11-08T06:50:31.894Z,1003.94
2022-11-08T06:51:32.456Z,1003.91
2022-11-08T06:52:32.449Z,1003.89
2022-11-08T06:53:32.459Z,1003.89
2022-11-08T06:54:32.026Z,1003.91
2022-11-08T06:55:32.412Z,1003.95
2022-11-08T06:56:31.793Z,1003.84
2022-11-08T06:57:32.388Z,1003.87
2022-11-08T06:58:32.383Z,1003.87
2022-11-08T06:59:32.376Z,1003.92
2022-11-08T07:00:32.378Z,1003.89
2022-11-08T07:01:31.802Z,1003.92
2022-11-08T07:02:32.091Z,1003.94
2022-11-08T07:03:32.332Z,1003.92
2022-11-08T07:04:32.320Z,1003.93
2022-11-08T07:05:32.311Z,1003.89
2022-11-08T07:06:31.621Z,1003.90
2022-11-08T07:07:31.699Z,1003.83
2022-11-08T07:08:31.701Z,1003.82
2022-11-08T07:09:31.626Z,1003.80
2022-11-08T07:10:32.253Z,1003.77
2022-11-08T07:11:32.243Z,1003.79
2022-11-08T07:12:31.563Z,1003.83
2022-11-08T07:13:32.294Z,1003.76
2022-11-08T07:14:31.661Z,1003.81
2022-11-08T07:15:32.214Z,1003.77
2022-11-08T07:16:31.543Z,1003.81
2022-11-08T07:17:38.330Z,1003.82
2022-11-08T07:18:32.593Z,1003.83
2022-11-08T07:19:31.490Z,1003.84
2022-11-08T07:20:31.493Z,1003.90
2022-11-08T07:21:32.134Z,1003.89
2022-11-08T07:22:31.443Z,1003.87
2022-11-08T07:23:32.122Z,1003.85
2022-11-08T07:24:31.415Z,1003.81
2022-11-08T07:25:31.439Z,1003.84
2022-11-08T07:26:31.425Z,1003.91
2022-11-08T07:27:32.073Z,1003.82
2022-11-08T07:28:31.396Z,1003.83
2022-11-08T07:29:32.795Z,1003.84
2022-11-08T07:30:31.361Z,1003.90
2022-11-08T07:31:32.039Z,1003.83
2022-11-08T07:32:32.016Z,1003.78
2022-11-08T07:33:32.008Z,1003.79
2022-11-08T07:34:31.341Z,1003.85
2022-11-08T07:35:32.000Z,1003.77
2022-11-08T07:36:31.300Z,1003.79
2022-11-08T07:37:31.292Z,1003.80
2022-11-08T07:38:31.311Z,1003.86
2022-11-08T07:39:31.936Z,1003.79
2022-11-08T07:40:31.248Z,1003.81
2022-11-08T07:41:31.919Z,1003.82
2022-11-08T07:42:50.053Z,1003.78
2022-11-08T07:43:33.260Z,1003.79
2022-11-08T07:44:31.199Z,1003.85
2022-11-08T07:45:31.192Z,1003.84
2022-11-08T07:46:31.192Z,1003.82
2022-11-08T07:47:32.621Z,1003.83
2022-11-08T07:48:31.185Z,1003.82
2022-11-08T07:49:31.261Z,1003.86
2022-11-08T07:50:31.821Z,1003.81
2022-11-08T07:51:31.845Z,1003.88
2022-11-08T07:52:31.129Z,1003.93
2022-11-08T07:53:31.132Z,1003.83
2022-11-08T07:54:32.053Z,1003.96
2022-11-08T07:55:31.131Z,1003.92
2022-11-08T07:56:31.763Z,1003.87
2022-11-08T07:57:31.072Z,1003.92
2022-11-08T07:58:31.742Z,1003.97
2022-11-08T07:59:31.794Z,1003.95
2022-11-08T08:00:31.045Z,1004.05
2022-11-08T08:01:31.175Z,1003.99
2022-11-08T08:02:31.036Z,1004.02
2022-11-08T08:03:31.200Z,1004.03
2022-11-08T08:04:30.981Z,1004.03
2022-11-08T08:05:31.706Z,1003.96
2022-11-08T08:06:30.965Z,1003.97
2022-11-08T08:07:30.955Z,1003.92
2022-11-08T08:08:31.023Z,1003.90
2022-11-08T08:09:30.946Z,1003.97
2022-11-08T08:10:30.975Z,1004.04
2022-11-08T08:11:33.824Z,1003.94
2022-11-08T08:12:31.580Z,1003.99
2022-11-08T08:13:30.999Z,1003.97
2022-11-08T08:14:30.868Z,1004.01
2022-11-08T08:15:31.009Z,1004.03
2022-11-08T08:16:31.732Z,1003.99
2022-11-08T08:17:31.018Z,1004.04
2022-11-08T08:18:30.820Z,1004.00
2022-11-08T08:19:31.088Z,1004.02
2022-11-08T08:20:31.507Z,1004.04
2022-11-08T08:21:30.850Z,1004.04
2022-11-08T08:22:30.779Z,1003.98
2022-11-08T08:23:30.794Z,1003.98
2022-11-08T08:24:30.773Z,1003.91
2022-11-08T08:25:30.783Z,1004.02
2022-11-08T08:26:31.430Z,1004.04
2022-11-08T08:27:30.770Z,1004.00
2022-11-08T08:28:30.724Z,1003.91
2022-11-08T08:29:31.407Z,1003.91
2022-11-08T08:30:31.389Z,1004.05
2022-11-08T08:31:31.461Z,1003.92
2022-11-08T08:32:31.781Z,1003.95
2022-11-08T08:33:30.753Z,1003.91
2022-11-08T08:34:30.682Z,1003.92
2022-11-08T08:35:30.629Z,1003.90
2022-11-08T08:36:30.632Z,1003.83
2022-11-08T08:37:31.294Z,1003.86
2022-11-08T08:38:30.774Z,1003.80
2022-11-08T08:39:30.781Z,1003.80
2022-11-08T08:40:30.776Z,1003.83
2022-11-08T08:41:30.587Z,1003.88
2022-11-08T08:42:30.697Z,1003.82
2022-11-08T08:43:30.693Z,1003.71
2022-11-08T08:44:30.559Z,1003.70
2022-11-08T08:45:31.217Z,1003.78
2022-11-08T08:46:30.715Z,1003.86
2022-11-08T08:47:30.495Z,1003.84
2022-11-08T08:48:30.546Z,1003.75
2022-11-08T08:49:30.617Z,1003.81
2022-11-08T08:50:31.183Z,1003.82
2022-11-08T08:51:30.472Z,1003.69
2022-11-08T08:52:30.766Z,1003.77
2022-11-08T08:53:30.810Z,1003.82
2022-11-08T08:54:30.478Z,1003.68
2022-11-08T08:55:30.548Z,1003.69
2022-11-08T08:56:30.417Z,1003.76
2022-11-08T08:57:30.689Z,1003.74
2022-11-08T08:58:30.704Z,1003.62
2022-11-08T09:01:38.637Z,1003.65
2022-11-08T09:02:32.261Z,1003.60
2022-11-08T09:03:30.523Z,1003.66
2022-11-08T09:04:30.665Z,1003.54
2022-11-08T09:05:30.541Z,1003.55
2022-11-08T09:06:30.852Z,1003.53
2022-11-08T09:07:30.289Z,1003.55
2022-11-08T09:08:30.766Z,1003.51
2022-11-08T09:09:30.362Z,1003.48
2022-11-08T09:10:30.276Z,1003.44
2022-11-08T09:11:30.819Z,1003.50
2022-11-08T09:12:30.927Z,1003.52
2022-11-08T09:13:30.224Z,1003.44
2022-11-08T09:14:30.214Z,1003.49
2022-11-08T09:15:30.198Z,1003.41
2022-11-08T09:16:30.916Z,1003.45
2022-11-08T09:17:30.267Z,1003.40
2022-11-08T09:18:30.306Z,1003.39
2022-11-08T09:19:30.175Z,1003.43
2022-11-08T09:20:30.211Z,1003.41
2022-11-08T09:21:30.211Z,1003.42
2022-11-08T09:22:30.125Z,1003.36
2022-11-08T09:23:30.108Z,1003.34
2022-11-08T09:24:30.598Z,1003.37
2022-11-08T09:25:30.103Z,1003.38
2022-11-08T09:26:30.108Z,1003.26
2022-11-08T09:27:30.188Z,1003.35
2022-11-08T09:28:31.674Z,1003.37
2022-11-08T09:29:30.089Z,1003.30
2022-11-08T09:30:30.067Z,1003.26
2022-11-08T09:31:30.019Z,1003.22
2022-11-08T09:32:46.603Z,1003.30
2022-11-08T09:33:31.095Z,1003.24
2022-11-08T09:34:30.172Z,1003.27
2022-11-08T09:35:30.124Z,1003.27
2022-11-08T09:36:30.772Z,1003.28
2022-11-08T09:37:29.971Z,1003.31
2022-11-08T09:38:29.963Z,1003.22
2022-11-08T09:39:30.079Z,1003.35
2022-11-08T09:40:29.960Z,1003.36
2022-11-08T09:41:29.926Z,1003.34
2022-11-08T09:42:29.943Z,1003.31
2022-11-08T09:43:31.822Z,1003.35
2022-11-08T09:44:29.872Z,1003.32
2022-11-08T09:45:29.875Z,1003.30
2022-11-08T09:46:29.863Z,1003.38
2022-11-08T09:47:29.922Z,1003.34
2022-11-08T09:48:29.984Z,1003.37
2022-11-08T09:49:29.853Z,1003.34
2022-11-08T09:50:29.975Z,1003.25
2022-11-08T09:51:30.495Z,1003.34
2022-11-08T09:52:29.804Z,1003.34
2022-11-08T09:53:30.725Z,1003.35
2022-11-08T09:54:29.798Z,1003.47
2022-11-08T09:55:29.773Z,1003.44
2022-11-08T09:56:30.437Z,1003.44
2022-11-08T09:57:29.769Z,1003.45
2022-11-08T09:58:29.752Z,1003.41
2022-11-08T09:59:30.411Z,1003.35
2022-11-08T10:00:30.466Z,1003.35
2022-11-08T10:01:29.757Z,1003.38
2022-11-08T10:02:29.721Z,1003.42
2022-11-08T10:03:29.680Z,1003.43
2022-11-08T10:04:29.667Z,1003.46
2022-11-08T10:05:29.660Z,1003.41
2022-11-08T10:06:30.391Z,1003.35
2022-11-08T10:07:30.790Z,1003.41
2022-11-08T10:08:30.310Z,1003.33
2022-11-08T10:09:29.627Z,1003.28
2022-11-08T10:10:30.287Z,1003.36
2022-11-08T10:11:30.281Z,1003.42
2022-11-08T10:12:29.630Z,1003.35
2022-11-08T10:13:29.660Z,1003.38
2022-11-08T10:14:30.241Z,1003.38
2022-11-08T10:15:29.541Z,1003.27
2022-11-08T10:16:30.223Z,1003.28
2022-11-08T10:17:30.221Z,1003.26
2022-11-08T10:18:30.184Z,1003.27
2022-11-08T10:19:30.206Z,1003.29
2022-11-08T10:20:29.516Z,1003.27
2022-11-08T10:21:30.184Z,1003.27
2022-11-08T10:22:29.492Z,1003.29
2022-11-08T10:23:30.135Z,1003.31
2022-11-08T10:24:30.195Z,1003.30
2022-11-08T10:25:29.423Z,1003.31
2022-11-08T10:26:30.407Z,1003.30
2022-11-08T10:27:29.421Z,1003.19
2022-11-08T10:28:30.102Z,1003.18
2022-11-08T10:29:30.090Z,1003.22
2022-11-08T10:30:30.056Z,1003.18
2022-11-08T10:31:30.057Z,1003.12
2022-11-08T10:32:30.045Z,1003.10
2022-11-08T10:33:30.277Z,1003.03
2022-11-08T10:34:30.016Z,1003.10
2022-11-08T10:35:29.337Z,1003.09
2022-11-08T10:36:29.356Z,1003.09
2022-11-08T10:37:30.024Z,1003.11
2022-11-08T10:38:29.297Z,1003.06
2022-11-08T10:39:29.989Z,1002.95
2022-11-08T10:40:29.966Z,1002.96
2022-11-08T10:41:30.711Z,1002.93
2022-11-08T10:42:29.939Z,1002.93
2022-11-08T10:43:29.944Z,1002.97
2022-11-08T10:44:29.259Z,1003.04
2022-11-08T10:45:29.909Z,1002.94
2022-11-08T10:46:30.641Z,1002.97
2022-11-08T10:47:30.561Z,1002.99
2022-11-08T10:48:29.237Z,1002.91
2022-11-08T10:49:29.199Z,1003.03
2022-11-08T10:50:29.162Z,1002.98
2022-11-08T10:51:29.168Z,1002.97
2022-11-08T10:52:29.821Z,1003.04
2022-11-08T10:53:29.820Z,1003.00
2022-11-08T10:54:30.223Z,1002.97
2022-11-08T10:55:29.135Z,1003.00
2022-11-08T10:56:29.939Z,1002.90
2022-11-08T10:57:29.791Z,1002.97
2022-11-08T10:58:29.763Z,1002.96
2022-11-08T10:59:29.772Z,1002.90
2022-11-08T11:00:29.106Z,1002.88
2022-11-08T11:01:29.152Z,1002.70
2022-11-08T11:02:29.181Z,1002.89
2022-11-08T11:03:29.106Z,1002.80
2022-11-08T11:04:29.696Z,1002.87
2022-11-08T11:05:29.046Z,1002.89
2022-11-08T11:06:29.070Z,1002.94
2022-11-08T11:07:28.985Z,1002.90
2022-11-08T11:08:28.955Z,1002.93
2022-11-08T11:09:29.637Z,1002.89
2022-11-08T11:10:29.670Z,1002.90
2022-11-08T11:11:28.947Z,1002.89
2022-11-08T11:12:28.941Z,1002.87
2022-11-08T11:13:28.931Z,1002.80
2022-11-08T11:14:28.906Z,1002.88
2022-11-08T11:15:29.577Z,1002.89
2022-11-08T11:16:29.558Z,1002.89
2022-11-08T11:17:28.886Z,1002.84
2022-11-08T11:18:28.929Z,1002.81
2022-11-08T11:19:28.861Z,1002.71
2022-11-08T11:20:29.533Z,1002.72
2022-11-08T11:21:29.500Z,1002.68
2022-11-08T11:22:28.824Z,1002.74
2022-11-08T11:23:28.813Z,1002.74
2022-11-08T11:24:28.903Z,1002.83
2022-11-08T11:25:29.475Z,1002.66
2022-11-08T11:26:29.455Z,1002.79
2022-11-08T11:27:29.441Z,1002.83
2022-11-08T11:28:28.794Z,1002.75
2022-11-08T11:29:28.751Z,1002.71
2022-11-08T11:30:28.760Z,1002.67
2022-11-08T11:31:28.763Z,1002.73
2022-11-08T11:32:29.392Z,1002.76
2022-11-08T11:33:29.437Z,1002.71
2022-11-08T11:34:28.683Z,1002.68
2022-11-08T11:35:28.683Z,1002.73
2022-11-08T11:36:28.686Z,1002.70
2022-11-08T11:37:29.355Z,1002.67
2022-11-08T11:38:29.324Z,1002.63
2022-11-08T11:39:29.313Z,1002.63
2022-11-08T11:40:33.765Z,1002.54
2022-11-08T11:41:28.687Z,1002.65
2022-11-08T11:42:46.732Z,1002.64
2022-11-08T11:43:29.851Z,1002.63
2022-11-08T11:44:30.395Z,1002.58
2022-11-08T11:45:28.549Z,1002.61
2022-11-08T11:46:30.070Z,1002.61
2022-11-08T11:47:28.547Z,1002.64
2022-11-08T11:48:29.295Z,1002.60
2022-11-08T11:49:29.202Z,1002.64
2022-11-08T11:50:29.188Z,1002.62
2022-11-08T11:51:28.578Z,1002.67
2022-11-08T11:52:29.161Z,1002.68
2022-11-08T11:53:28.518Z,1002.59
2022-11-08T11:54:28.583Z,1002.59
2022-11-08T11:55:28.470Z,1002.57
2022-11-08T11:56:28.444Z,1002.60
2022-11-08T11:57:28.420Z,1002.64
2022-11-08T11:58:30.121Z,1002.70
2022-11-08T11:59:28.430Z,1002.65
2022-11-08T12:00:28.412Z,1002.69
2022-11-08T12:01:29.084Z,1002.72
2022-11-08T12:02:28.463Z,1002.74
2022-11-08T12:03:28.351Z,1002.77
2022-11-08T12:04:28.353Z,1002.69
2022-11-08T12:05:29.025Z,1002.71
2022-11-08T12:06:28.415Z,1002.68
2022-11-08T12:07:29.002Z,1002.66